»·PEaware :: N65415 KSNA-KSAN

N65415 :: KSNA-KSAN

FLIGHT INFORMATION

Flight Status: Arrived
Operator: Privately registered:
United States
More flights under this callsign
Pilot: Stephane C. (508)
Aircraft: CESSNA 172 SKYHAWK
(C172)
More flights by this aircraft type
Origin: KSNA John Wayne-Orange Co
United States
Destination: KSAN San Diego Intl-Lindbergh
United States
More flights between these airports :: More routes between these airports
Route: V23 MZB
File this flight plan on PilotEdge
Remarks:
Altitude:
(Current/Filed)
5,000ft
Speed:
(Current/Filed)
110kts
Departed: 13-Jan-18 04:31 PM
Arrived: 13-Jan-18 05:23 PM
Distance/Time
Traveled:
66nm/0:51
Distance/Time
To Go:
Arrived

Flight Plot

Page will automatically refresh every two minutes.


Map Options




Map Legend


Flown Route
Filed Route
Departure Airport
Arrival Airport
Navaid (VOR, NDB)
Fix

Horizontal Profiles

Position Reports

Time Latitude Longitude Heading Altitude Ground
Speed
13-Jan-18 16:25 33.668817 -117.875832 27 60ft 0kts
13-Jan-18 16:26 33.668817 -117.875832 27 60ft 0kts
13-Jan-18 16:27 33.668817 -117.875832 27 60ft 0kts
13-Jan-18 16:28 33.668683 -117.875382 116 60ft 0kts
13-Jan-18 16:29 33.668683 -117.875382 116 60ft 0kts
13-Jan-18 16:30 33.669858 -117.874029 28 60ft 15kts
13-Jan-18 16:31 33.674134 -117.871318 27 60ft 17kts
13-Jan-18 16:32 33.676610 -117.869320 207 60ft 0kts
13-Jan-18 16:33 33.676610 -117.869320 207 60ft 0kts
13-Jan-18 16:34 33.678679 -117.868431 28 60ft 19kts
13-Jan-18 16:35 33.681183 -117.866393 117 60ft 0kts
13-Jan-18 16:36 33.680491 -117.865803 205 60ft 10kts
13-Jan-18 16:37 33.665706 -117.875188 206 469ft 76kts
13-Jan-18 16:38 33.644157 -117.877824 182 1187ft 80kts
13-Jan-18 16:39 33.622387 -117.879510 183 1916ft 78kts
13-Jan-18 16:40 33.600855 -117.881027 184 2615ft 77kts
13-Jan-18 16:41 33.579471 -117.883125 185 3275ft 76kts
13-Jan-18 16:42 33.566224 -117.865081 113 3872ft 86kts
13-Jan-18 16:43 33.558473 -117.837336 110 4444ft 89kts
13-Jan-18 16:44 33.550362 -117.808930 111 4977ft 97kts
13-Jan-18 16:45 33.537118 -117.774274 134 4996ft 122kts
13-Jan-18 16:46 33.513934 -117.743836 136 5011ft 125kts
13-Jan-18 16:47 33.489351 -117.713472 135 4991ft 128kts
13-Jan-18 16:48 33.463978 -117.682951 137 4997ft 128kts
13-Jan-18 16:49 33.438720 -117.652336 137 5009ft 130kts
13-Jan-18 16:50 33.412369 -117.622290 135 5026ft 131kts
13-Jan-18 16:51 33.387237 -117.590383 133 5018ft 133kts
13-Jan-18 16:52 33.361362 -117.558659 136 4950ft 133kts
13-Jan-18 16:53 33.335091 -117.527998 136 4962ft 129kts
13-Jan-18 16:54 33.308197 -117.498876 136 4997ft 129kts
13-Jan-18 16:55 33.283039 -117.468237 131 5039ft 128kts
13-Jan-18 16:56 33.256632 -117.438132 139 4955ft 132kts
13-Jan-18 16:57 33.228093 -117.412518 155 5013ft 129kts
13-Jan-18 16:58 33.194311 -117.397449 162 4994ft 132kts
13-Jan-18 16:59 33.160013 -117.383767 164 4990ft 130kts
13-Jan-18 17:00 33.125823 -117.369983 161 4931ft 131kts
13-Jan-18 17:01 33.092473 -117.355536 161 4972ft 127kts
13-Jan-18 17:02 33.061014 -117.341233 164 5034ft 126kts
13-Jan-18 17:03 33.027456 -117.328061 165 5005ft 130kts
13-Jan-18 17:04 32.993027 -117.315298 161 4988ft 129kts
13-Jan-18 17:05 32.958817 -117.301910 163 4969ft 130kts
13-Jan-18 17:06 32.925102 -117.287982 159 5000ft 129kts
13-Jan-18 17:07 32.893785 -117.272441 155 5031ft 128kts
13-Jan-18 17:08 32.860137 -117.256727 160 4978ft 130kts
13-Jan-18 17:09 32.831084 -117.235218 108 4985ft 125kts
13-Jan-18 17:10 32.823062 -117.194937 97 4909ft 127kts
13-Jan-18 17:11 32.815760 -117.153893 105 4868ft 128kts
13-Jan-18 17:12 32.807434 -117.114193 103 4986ft 120kts
13-Jan-18 17:13 32.799853 -117.075480 110 5041ft 124kts
13-Jan-18 17:14 32.787390 -117.037157 109 5073ft 125kts
13-Jan-18 17:15 32.776408 -116.997624 105 5116ft 124kts
13-Jan-18 17:16 32.766778 -116.956846 105 5028ft 131kts
13-Jan-18 17:17 32.755576 -116.916136 111 4991ft 131kts
13-Jan-18 17:18 32.733612 -116.892176 207 4843ft 123kts
13-Jan-18 17:19 32.703297 -116.912233 211 4538ft 124kts
13-Jan-18 17:20 32.675433 -116.939727 268 4015ft 137kts
13-Jan-18 17:21 32.682764 -116.981772 287 3688ft 133kts
13-Jan-18 17:22 32.692667 -117.020495 289 3533ft 122kts
13-Jan-18 17:23 32.702573 -117.060611 287 2968ft 128kts
13-Jan-18 17:24 32.711678 -117.098677 288 2173ft 100kts
13-Jan-18 17:25 32.718084 -117.125449 288 1339ft 75kts
13-Jan-18 17:26 32.723185 -117.146766 287 766ft 59kts
13-Jan-18 17:27 32.727740 -117.165626 288 394ft 59kts
13-Jan-18 17:28 32.732176 -117.183983 289 19ft 49kts
13-Jan-18 17:29 32.733863 -117.188110 12 17ft 0kts
13-Jan-18 17:30 32.733871 -117.188107 13 17ft 1kts
13-Jan-18 17:31 32.733561 -117.184930 106 17ft 15kts
13-Jan-18 17:32 32.732166 -117.179169 105 20ft 19kts
13-Jan-18 17:33 32.732012 -117.176410 10 28ft 3kts
13-Jan-18 17:34 32.732123 -117.176738 194 28ft 0kts

Navigation Log

Ident Type
1. KSNA Airport
2. MZB Navaid
3. KSAN Airport